sensor_id;sensor_type;location;lat;lon;timestamp;P1;durP1;ratioP1;P2;durP2;ratioP2
41629;SDS011;27322;49.488;8.480;2022-09-27T00:00:30;2.40;;;0.70;;
41629;SDS011;27322;49.488;8.480;2022-09-27T00:02:56;1.85;;;0.70;;
41629;SDS011;27322;49.488;8.480;2022-09-27T00:05:21;1.48;;;0.65;;
41629;SDS011;27322;49.488;8.480;2022-09-27T00:07:47;1.77;;;0.70;;
41629;SDS011;27322;49.488;8.480;2022-09-27T00:10:13;1.13;;;0.57;;
41629;SDS011;27322;49.488;8.480;2022-09-27T00:12:39;2.47;;;0.70;;
41629;SDS011;27322;49.488;8.480;2022-09-27T00:15:05;3.60;;;0.55;;
41629;SDS011;27322;49.488;8.480;2022-09-27T00:17:32;1.40;;;0.60;;
41629;SDS011;27322;49.488;8.480;2022-09-27T00:19:58;2.13;;;0.70;;
41629;SDS011;27322;49.488;8.480;2022-09-27T00:22:24;1.33;;;0.52;;
41629;SDS011;27322;49.488;8.480;2022-09-27T00:24:51;1.25;;;0.50;;
41629;SDS011;27322;49.488;8.480;2022-09-27T00:27:17;2.75;;;0.90;;
41629;SDS011;27322;49.488;8.480;2022-09-27T00:29:43;1.02;;;0.52;;
41629;SDS011;27322;49.488;8.480;2022-09-27T00:32:10;1.13;;;0.60;;
41629;SDS011;27322;49.488;8.480;2022-09-27T00:34:37;2.67;;;0.60;;
41629;SDS011;27322;49.488;8.480;2022-09-27T00:37:03;0.95;;;0.45;;
41629;SDS011;27322;49.488;8.480;2022-09-27T00:39:28;1.02;;;0.60;;
41629;SDS011;27322;49.488;8.480;2022-09-27T00:41:54;1.88;;;0.60;;
41629;SDS011;27322;49.488;8.480;2022-09-27T00:49:25;1.85;;;0.70;;
41629;SDS011;27322;49.488;8.480;2022-09-27T00:51:56;0.90;;;0.60;;
41629;SDS011;27322;49.488;8.480;2022-09-27T00:54:27;1.20;;;0.60;;
41629;SDS011;27322;49.488;8.480;2022-09-27T00:56:54;2.03;;;0.70;;
41629;SDS011;27322;49.488;8.480;2022-09-27T01:02:01;2.65;;;0.70;;
41629;SDS011;27322;49.488;8.480;2022-09-27T01:04:28;1.15;;;0.55;;
41629;SDS011;27322;49.488;8.480;2022-09-27T01:06:55;1.25;;;0.55;;
41629;SDS011;27322;49.488;8.480;2022-09-27T01:09:21;1.00;;;0.60;;
41629;SDS011;27322;49.488;8.480;2022-09-27T01:28:46;1.33;;;0.70;;
41629;SDS011;27322;49.488;8.480;2022-09-27T01:31:46;1.60;;;0.80;;
41629;SDS011;27322;49.488;8.480;2022-09-27T01:42:23;1.02;;;0.70;;
41629;SDS011;27322;49.488;8.480;2022-09-27T01:47:50;1.90;;;0.70;;
41629;SDS011;27322;49.488;8.480;2022-09-27T01:50:25;1.90;;;0.70;;
41629;SDS011;27322;49.488;8.480;2022-09-27T01:53:01;1.40;;;0.73;;
41629;SDS011;27322;49.488;8.480;2022-09-27T01:55:34;2.42;;;1.13;;
41629;SDS011;27322;49.488;8.480;2022-09-27T01:58:07;1.83;;;0.82;;
41629;SDS011;27322;49.488;8.480;2022-09-27T02:00:39;2.42;;;0.70;;
41629;SDS011;27322;49.488;8.480;2022-09-27T02:03:11;3.08;;;1.35;;
41629;SDS011;27322;49.488;8.480;2022-09-27T02:05:43;2.50;;;1.08;;
41629;SDS011;27322;49.488;8.480;2022-09-27T02:08:27;2.83;;;1.20;;
41629;SDS011;27322;49.488;8.480;2022-09-27T02:10:57;2.20;;;1.08;;
41629;SDS011;27322;49.488;8.480;2022-09-27T02:16:05;2.90;;;1.25;;
41629;SDS011;27322;49.488;8.480;2022-09-27T02:21:20;2.40;;;1.00;;
41629;SDS011;27322;49.488;8.480;2022-09-27T02:23:55;2.70;;;0.90;;
41629;SDS011;27322;49.488;8.480;2022-09-27T02:29:09;3.65;;;0.90;;
41629;SDS011;27322;49.488;8.480;2022-09-27T02:31:40;2.65;;;1.10;;
41629;SDS011;27322;49.488;8.480;2022-09-27T02:34:07;1.95;;;0.82;;
41629;SDS011;27322;49.488;8.480;2022-09-27T02:36:42;3.45;;;1.00;;
41629;SDS011;27322;49.488;8.480;2022-09-27T02:39:07;2.60;;;0.88;;
41629;SDS011;27322;49.488;8.480;2022-09-27T02:41:33;1.73;;;0.90;;
41629;SDS011;27322;49.488;8.480;2022-09-27T02:44:00;2.08;;;0.90;;
41629;SDS011;27322;49.488;8.480;2022-09-27T02:46:38;2.63;;;1.00;;
41629;SDS011;27322;49.488;8.480;2022-09-27T02:55:18;2.93;;;0.90;;
41629;SDS011;27322;49.488;8.480;2022-09-27T03:05:05;3.30;;;1.10;;
41629;SDS011;27322;49.488;8.480;2022-09-27T03:07:37;3.05;;;1.08;;
41629;SDS011;27322;49.488;8.480;2022-09-27T03:10:04;1.98;;;0.90;;
41629;SDS011;27322;49.488;8.480;2022-09-27T03:12:30;2.10;;;0.98;;
41629;SDS011;27322;49.488;8.480;2022-09-27T03:14:57;3.13;;;1.00;;
41629;SDS011;27322;49.488;8.480;2022-09-27T03:17:24;2.40;;;0.85;;
41629;SDS011;27322;49.488;8.480;2022-09-27T03:19:50;3.22;;;0.90;;
41629;SDS011;27322;49.488;8.480;2022-09-27T03:22:16;1.80;;;0.70;;
41629;SDS011;27322;49.488;8.480;2022-09-27T03:24:42;1.70;;;0.70;;
41629;SDS011;27322;49.488;8.480;2022-09-27T03:27:08;1.83;;;0.85;;
41629;SDS011;27322;49.488;8.480;2022-09-27T03:29:34;2.22;;;0.80;;
41629;SDS011;27322;49.488;8.480;2022-09-27T03:32:00;4.05;;;0.70;;
41629;SDS011;27322;49.488;8.480;2022-09-27T03:34:26;2.88;;;0.82;;
41629;SDS011;27322;49.488;8.480;2022-09-27T03:36:52;2.75;;;0.90;;
41629;SDS011;27322;49.488;8.480;2022-09-27T03:39:17;4.90;;;0.98;;
41629;SDS011;27322;49.488;8.480;2022-09-27T03:41:43;3.92;;;0.70;;
41629;SDS011;27322;49.488;8.480;2022-09-27T03:44:08;2.28;;;0.80;;
41629;SDS011;27322;49.488;8.480;2022-09-27T03:46:34;2.80;;;0.90;;
41629;SDS011;27322;49.488;8.480;2022-09-27T03:49:00;2.70;;;0.80;;
41629;SDS011;27322;49.488;8.480;2022-09-27T03:51:25;2.95;;;0.90;;
41629;SDS011;27322;49.488;8.480;2022-09-27T03:53:51;1.40;;;0.70;;
41629;SDS011;27322;49.488;8.480;2022-09-27T03:56:17;1.63;;;0.73;;
41629;SDS011;27322;49.488;8.480;2022-09-27T03:58:43;4.15;;;0.93;;
41629;SDS011;27322;49.488;8.480;2022-09-27T04:01:09;2.65;;;0.80;;
41629;SDS011;27322;49.488;8.480;2022-09-27T04:03:35;2.72;;;0.90;;
41629;SDS011;27322;49.488;8.480;2022-09-27T04:06:01;2.95;;;0.95;;
41629;SDS011;27322;49.488;8.480;2022-09-27T04:08:27;2.17;;;0.80;;
41629;SDS011;27322;49.488;8.480;2022-09-27T04:10:54;1.80;;;0.80;;
41629;SDS011;27322;49.488;8.480;2022-09-27T04:13:20;1.95;;;0.93;;
41629;SDS011;27322;49.488;8.480;2022-09-27T04:15:46;2.20;;;0.90;;
41629;SDS011;27322;49.488;8.480;2022-09-27T04:18:11;2.95;;;0.90;;
41629;SDS011;27322;49.488;8.480;2022-09-27T04:20:37;2.50;;;1.02;;
41629;SDS011;27322;49.488;8.480;2022-09-27T04:23:03;2.28;;;0.90;;
41629;SDS011;27322;49.488;8.480;2022-09-27T04:25:29;2.38;;;0.93;;
41629;SDS011;27322;49.488;8.480;2022-09-27T04:27:56;2.53;;;1.10;;
41629;SDS011;27322;49.488;8.480;2022-09-27T04:30:23;3.75;;;0.90;;
41629;SDS011;27322;49.488;8.480;2022-09-27T04:32:50;2.97;;;1.00;;
41629;SDS011;27322;49.488;8.480;2022-09-27T04:35:16;3.58;;;1.10;;
41629;SDS011;27322;49.488;8.480;2022-09-27T04:38:00;2.60;;;0.90;;
41629;SDS011;27322;49.488;8.480;2022-09-27T04:40:26;2.83;;;1.00;;
41629;SDS011;27322;49.488;8.480;2022-09-27T04:42:52;1.60;;;0.70;;
41629;SDS011;27322;49.488;8.480;2022-09-27T04:45:18;2.78;;;1.00;;
41629;SDS011;27322;49.488;8.480;2022-09-27T04:47:47;3.42;;;0.90;;
41629;SDS011;27322;49.488;8.480;2022-09-27T04:50:14;3.05;;;1.30;;
41629;SDS011;27322;49.488;8.480;2022-09-27T04:52:41;3.67;;;1.15;;
41629;SDS011;27322;49.488;8.480;2022-09-27T04:55:08;3.42;;;1.10;;
41629;SDS011;27322;49.488;8.480;2022-09-27T04:57:34;2.60;;;1.00;;
41629;SDS011;27322;49.488;8.480;2022-09-27T05:00:01;2.42;;;1.05;;
41629;SDS011;27322;49.488;8.480;2022-09-27T05:02:28;2.60;;;0.90;;
41629;SDS011;27322;49.488;8.480;2022-09-27T05:04:54;2.03;;;1.08;;
41629;SDS011;27322;49.488;8.480;2022-09-27T05:07:26;2.95;;;1.00;;
41629;SDS011;27322;49.488;8.480;2022-09-27T05:09:53;2.00;;;0.90;;
41629;SDS011;27322;49.488;8.480;2022-09-27T05:12:20;3.72;;;0.90;;
41629;SDS011;27322;49.488;8.480;2022-09-27T05:14:46;2.30;;;0.88;;
41629;SDS011;27322;49.488;8.480;2022-09-27T05:17:12;2.10;;;0.90;;
41629;SDS011;27322;49.488;8.480;2022-09-27T05:19:38;1.95;;;0.70;;
41629;SDS011;27322;49.488;8.480;2022-09-27T05:22:04;4.38;;;0.90;;
41629;SDS011;27322;49.488;8.480;2022-09-27T05:24:31;3.58;;;1.00;;
41629;SDS011;27322;49.488;8.480;2022-09-27T05:26:57;2.63;;;0.90;;
41629;SDS011;27322;49.488;8.480;2022-09-27T05:29:23;3.85;;;0.80;;
41629;SDS011;27322;49.488;8.480;2022-09-27T05:31:49;4.03;;;1.20;;
41629;SDS011;27322;49.488;8.480;2022-09-27T05:34:15;2.85;;;0.90;;
41629;SDS011;27322;49.488;8.480;2022-09-27T05:36:45;2.10;;;0.85;;
41629;SDS011;27322;49.488;8.480;2022-09-27T05:39:12;2.67;;;0.77;;
41629;SDS011;27322;49.488;8.480;2022-09-27T05:41:40;2.20;;;0.90;;
41629;SDS011;27322;49.488;8.480;2022-09-27T05:44:06;2.55;;;0.70;;
41629;SDS011;27322;49.488;8.480;2022-09-27T05:46:32;2.00;;;0.70;;
41629;SDS011;27322;49.488;8.480;2022-09-27T05:48:58;1.65;;;0.60;;
41629;SDS011;27322;49.488;8.480;2022-09-27T05:51:23;1.50;;;0.60;;
41629;SDS011;27322;49.488;8.480;2022-09-27T05:53:49;2.72;;;0.68;;
41629;SDS011;27322;49.488;8.480;2022-09-27T05:56:14;2.17;;;0.50;;
41629;SDS011;27322;49.488;8.480;2022-09-27T05:58:41;1.92;;;0.75;;
41629;SDS011;27322;49.488;8.480;2022-09-27T06:01:07;1.90;;;0.60;;
41629;SDS011;27322;49.488;8.480;2022-09-27T06:03:34;2.65;;;0.70;;
41629;SDS011;27322;49.488;8.480;2022-09-27T06:06:00;2.30;;;0.80;;
41629;SDS011;27322;49.488;8.480;2022-09-27T06:08:31;2.55;;;0.52;;
41629;SDS011;27322;49.488;8.480;2022-09-27T06:11:01;1.65;;;0.50;;
41629;SDS011;27322;49.488;8.480;2022-09-27T06:13:31;0.98;;;0.45;;
41629;SDS011;27322;49.488;8.480;2022-09-27T06:16:05;1.30;;;0.40;;
41629;SDS011;27322;49.488;8.480;2022-09-27T06:18:33;2.17;;;0.68;;
41629;SDS011;27322;49.488;8.480;2022-09-27T06:21:00;1.83;;;0.60;;
41629;SDS011;27322;49.488;8.480;2022-09-27T06:23:27;1.27;;;0.40;;
41629;SDS011;27322;49.488;8.480;2022-09-27T06:25:53;2.70;;;0.70;;
41629;SDS011;27322;49.488;8.480;2022-09-27T06:28:19;2.22;;;0.75;;
41629;SDS011;27322;49.488;8.480;2022-09-27T06:30:46;2.88;;;0.80;;
41629;SDS011;27322;49.488;8.480;2022-09-27T06:33:17;4.47;;;0.90;;
41629;SDS011;27322;49.488;8.480;2022-09-27T06:35:44;2.15;;;0.52;;
41629;SDS011;27322;49.488;8.480;2022-09-27T06:38:11;3.03;;;1.00;;
41629;SDS011;27322;49.488;8.480;2022-09-27T06:40:40;3.90;;;0.80;;
41629;SDS011;27322;49.488;8.480;2022-09-27T06:43:10;1.63;;;0.80;;
41629;SDS011;27322;49.488;8.480;2022-09-27T06:45:37;2.75;;;0.70;;
41629;SDS011;27322;49.488;8.480;2022-09-27T06:48:04;1.70;;;0.50;;
41629;SDS011;27322;49.488;8.480;2022-09-27T06:50:34;4.47;;;0.80;;
41629;SDS011;27322;49.488;8.480;2022-09-27T06:53:02;4.65;;;0.70;;
41629;SDS011;27322;49.488;8.480;2022-09-27T06:55:29;5.38;;;1.02;;
41629;SDS011;27322;49.488;8.480;2022-09-27T06:57:59;7.75;;;0.93;;
41629;SDS011;27322;49.488;8.480;2022-09-27T07:00:44;6.95;;;1.13;;
41629;SDS011;27322;49.488;8.480;2022-09-27T07:03:17;2.45;;;0.60;;
41629;SDS011;27322;49.488;8.480;2022-09-27T07:05:53;2.80;;;0.50;;
41629;SDS011;27322;49.488;8.480;2022-09-27T07:08:21;1.98;;;0.70;;
41629;SDS011;27322;49.488;8.480;2022-09-27T07:10:47;2.60;;;0.60;;
41629;SDS011;27322;49.488;8.480;2022-09-27T07:13:13;3.25;;;0.60;;
41629;SDS011;27322;49.488;8.480;2022-09-27T07:15:39;1.35;;;0.70;;
41629;SDS011;27322;49.488;8.480;2022-09-27T07:18:06;1.17;;;0.55;;
41629;SDS011;27322;49.488;8.480;2022-09-27T07:20:32;4.40;;;0.60;;
41629;SDS011;27322;49.488;8.480;2022-09-27T07:23:01;2.08;;;0.60;;
41629;SDS011;27322;49.488;8.480;2022-09-27T07:25:28;1.75;;;0.50;;
41629;SDS011;27322;49.488;8.480;2022-09-27T07:27:54;2.72;;;0.60;;
41629;SDS011;27322;49.488;8.480;2022-09-27T07:30:24;1.73;;;0.60;;
41629;SDS011;27322;49.488;8.480;2022-09-27T07:32:55;3.38;;;0.77;;
41629;SDS011;27322;49.488;8.480;2022-09-27T07:35:22;3.45;;;0.57;;
41629;SDS011;27322;49.488;8.480;2022-09-27T07:37:48;2.63;;;0.50;;
41629;SDS011;27322;49.488;8.480;2022-09-27T07:40:13;2.38;;;0.50;;
41629;SDS011;27322;49.488;8.480;2022-09-27T07:42:39;1.77;;;0.60;;
41629;SDS011;27322;49.488;8.480;2022-09-27T07:45:06;5.22;;;0.85;;
41629;SDS011;27322;49.488;8.480;2022-09-27T07:47:33;1.67;;;0.60;;
41629;SDS011;27322;49.488;8.480;2022-09-27T07:50:00;3.28;;;0.60;;
41629;SDS011;27322;49.488;8.480;2022-09-27T07:52:25;1.33;;;0.43;;
41629;SDS011;27322;49.488;8.480;2022-09-27T07:54:51;1.98;;;0.40;;
41629;SDS011;27322;49.488;8.480;2022-09-27T07:57:20;1.77;;;0.50;;
41629;SDS011;27322;49.488;8.480;2022-09-27T07:59:46;1.75;;;0.70;;
41629;SDS011;27322;49.488;8.480;2022-09-27T08:02:15;1.17;;;0.50;;
41629;SDS011;27322;49.488;8.480;2022-09-27T08:04:41;2.80;;;0.40;;
41629;SDS011;27322;49.488;8.480;2022-09-27T08:07:08;1.85;;;0.60;;
41629;SDS011;27322;49.488;8.480;2022-09-27T08:09:34;1.48;;;0.50;;
41629;SDS011;27322;49.488;8.480;2022-09-27T08:12:00;2.28;;;0.57;;
41629;SDS011;27322;49.488;8.480;2022-09-27T08:14:28;1.92;;;0.52;;
41629;SDS011;27322;49.488;8.480;2022-09-27T08:16:54;0.93;;;0.40;;
41629;SDS011;27322;49.488;8.480;2022-09-27T08:19:20;2.05;;;0.50;;
41629;SDS011;27322;49.488;8.480;2022-09-27T08:21:45;0.77;;;0.40;;
41629;SDS011;27322;49.488;8.480;2022-09-27T08:24:11;2.72;;;0.68;;
41629;SDS011;27322;49.488;8.480;2022-09-27T08:26:37;0.90;;;0.32;;
41629;SDS011;27322;49.488;8.480;2022-09-27T08:29:03;1.88;;;0.45;;
41629;SDS011;27322;49.488;8.480;2022-09-27T08:31:29;2.53;;;0.50;;
41629;SDS011;27322;49.488;8.480;2022-09-27T08:33:55;2.05;;;0.40;;
41629;SDS011;27322;49.488;8.480;2022-09-27T08:36:21;1.88;;;0.60;;
41629;SDS011;27322;49.488;8.480;2022-09-27T08:38:50;3.70;;;0.50;;
41629;SDS011;27322;49.488;8.480;2022-09-27T08:46:56;1.55;;;0.50;;
41629;SDS011;27322;49.488;8.480;2022-09-27T08:49:35;1.88;;;0.70;;
41629;SDS011;27322;49.488;8.480;2022-09-27T08:52:17;2.35;;;0.60;;
41629;SDS011;27322;49.488;8.480;2022-09-27T08:54:47;1.65;;;0.70;;
41629;SDS011;27322;49.488;8.480;2022-09-27T08:57:14;3.60;;;0.60;;
41629;SDS011;27322;49.488;8.480;2022-09-27T09:00:04;1.45;;;0.65;;
41629;SDS011;27322;49.488;8.480;2022-09-27T09:02:36;1.95;;;0.70;;
41629;SDS011;27322;49.488;8.480;2022-09-27T09:05:05;2.75;;;0.80;;
41629;SDS011;27322;49.488;8.480;2022-09-27T09:07:41;5.20;;;0.90;;
41629;SDS011;27322;49.488;8.480;2022-09-27T09:27:06;3.38;;;0.77;;
41629;SDS011;27322;49.488;8.480;2022-09-27T09:35:43;1.80;;;0.90;;
41629;SDS011;27322;49.488;8.480;2022-09-27T09:38:42;3.80;;;1.17;;
41629;SDS011;27322;49.488;8.480;2022-09-27T09:46:27;2.67;;;1.10;;
41629;SDS011;27322;49.488;8.480;2022-09-27T09:51:43;4.28;;;0.95;;
41629;SDS011;27322;49.488;8.480;2022-09-27T09:54:32;3.00;;;1.20;;
41629;SDS011;27322;49.488;8.480;2022-09-27T10:00:04;3.13;;;1.13;;
41629;SDS011;27322;49.488;8.480;2022-09-27T10:02:38;2.45;;;0.98;;
41629;SDS011;27322;49.488;8.480;2022-09-27T10:05:06;2.42;;;0.90;;
41629;SDS011;27322;49.488;8.480;2022-09-27T10:07:38;1.90;;;1.00;;
41629;SDS011;27322;49.488;8.480;2022-09-27T10:10:04;4.50;;;1.30;;
41629;SDS011;27322;49.488;8.480;2022-09-27T10:12:32;2.80;;;1.33;;
41629;SDS011;27322;49.488;8.480;2022-09-27T10:15:00;4.40;;;1.50;;
41629;SDS011;27322;49.488;8.480;2022-09-27T10:17:36;2.50;;;1.38;;
41629;SDS011;27322;49.488;8.480;2022-09-27T10:20:05;4.47;;;1.70;;
41629;SDS011;27322;49.488;8.480;2022-09-27T10:22:36;3.10;;;1.40;;
41629;SDS011;27322;49.488;8.480;2022-09-27T10:25:05;2.55;;;1.17;;
41629;SDS011;27322;49.488;8.480;2022-09-27T10:27:46;3.83;;;1.20;;
41629;SDS011;27322;49.488;8.480;2022-09-27T10:30:21;3.25;;;1.30;;
41629;SDS011;27322;49.488;8.480;2022-09-27T10:32:59;4.13;;;1.00;;
41629;SDS011;27322;49.488;8.480;2022-09-27T10:35:34;3.85;;;1.20;;
41629;SDS011;27322;49.488;8.480;2022-09-27T10:40:42;2.25;;;1.00;;
41629;SDS011;27322;49.488;8.480;2022-09-27T10:43:25;2.30;;;1.20;;
41629;SDS011;27322;49.488;8.480;2022-09-27T10:48:39;3.78;;;1.58;;
41629;SDS011;27322;49.488;8.480;2022-09-27T10:51:28;3.88;;;1.48;;
41629;SDS011;27322;49.488;8.480;2022-09-27T10:53:54;4.10;;;1.40;;
41629;SDS011;27322;49.488;8.480;2022-09-27T10:56:31;5.20;;;1.27;;
41629;SDS011;27322;49.488;8.480;2022-09-27T10:58:58;4.90;;;1.95;;
41629;SDS011;27322;49.488;8.480;2022-09-27T11:01:26;2.47;;;0.95;;
41629;SDS011;27322;49.488;8.480;2022-09-27T11:04:55;4.65;;;1.52;;
41629;SDS011;27322;49.488;8.480;2022-09-27T11:07:20;3.17;;;0.90;;
41629;SDS011;27322;49.488;8.480;2022-09-27T11:09:51;4.10;;;1.00;;
41629;SDS011;27322;49.488;8.480;2022-09-27T11:12:18;4.38;;;0.90;;
41629;SDS011;27322;49.488;8.480;2022-09-27T11:14:51;4.97;;;1.10;;
41629;SDS011;27322;49.488;8.480;2022-09-27T11:23:01;2.88;;;1.10;;
41629;SDS011;27322;49.488;8.480;2022-09-27T11:25:38;2.83;;;0.90;;
41629;SDS011;27322;49.488;8.480;2022-09-27T11:31:11;2.75;;;1.25;;
41629;SDS011;27322;49.488;8.480;2022-09-27T12:02:11;3.47;;;1.00;;
41629;SDS011;27322;49.488;8.480;2022-09-27T12:10:47;2.67;;;0.95;;
41629;SDS011;27322;49.488;8.480;2022-09-27T12:13:26;3.75;;;1.05;;
41629;SDS011;27322;49.488;8.480;2022-09-27T12:15:57;3.15;;;0.80;;
41629;SDS011;27322;49.488;8.480;2022-09-27T12:20:54;2.70;;;0.90;;
41629;SDS011;27322;49.488;8.480;2022-09-27T12:23:21;2.97;;;0.90;;
41629;SDS011;27322;49.488;8.480;2022-09-27T12:25:48;3.05;;;0.70;;
41629;SDS011;27322;49.488;8.480;2022-09-27T12:28:30;2.10;;;0.80;;
41629;SDS011;27322;49.488;8.480;2022-09-27T12:31:06;2.08;;;0.95;;
41629;SDS011;27322;49.488;8.480;2022-09-27T12:33:44;4.15;;;0.88;;
41629;SDS011;27322;49.488;8.480;2022-09-27T12:36:23;2.42;;;0.80;;
41629;SDS011;27322;49.488;8.480;2022-09-27T12:39:07;2.67;;;0.90;;
41629;SDS011;27322;49.488;8.480;2022-09-27T12:41:43;2.85;;;0.80;;
41629;SDS011;27322;49.488;8.480;2022-09-27T12:44:13;3.03;;;0.80;;
41629;SDS011;27322;49.488;8.480;2022-09-27T12:46:43;2.33;;;0.90;;
41629;SDS011;27322;49.488;8.480;2022-09-27T12:52:00;2.00;;;0.70;;
41629;SDS011;27322;49.488;8.480;2022-09-27T12:57:46;1.45;;;0.60;;
41629;SDS011;27322;49.488;8.480;2022-09-27T13:13:40;1.90;;;0.80;;
41629;SDS011;27322;49.488;8.480;2022-09-27T13:16:06;2.92;;;0.98;;
41629;SDS011;27322;49.488;8.480;2022-09-27T13:27:19;3.08;;;0.70;;
41629;SDS011;27322;49.488;8.480;2022-09-27T13:29:51;2.33;;;0.73;;
41629;SDS011;27322;49.488;8.480;2022-09-27T13:32:32;2.75;;;0.90;;
41629;SDS011;27322;49.488;8.480;2022-09-27T13:48:17;4.20;;;1.10;;
41629;SDS011;27322;49.488;8.480;2022-09-27T13:50:55;2.40;;;0.93;;
41629;SDS011;27322;49.488;8.480;2022-09-27T13:53:50;3.10;;;1.10;;
41629;SDS011;27322;49.488;8.480;2022-09-27T13:59:03;1.90;;;0.80;;
41629;SDS011;27322;49.488;8.480;2022-09-27T14:01:35;2.13;;;0.70;;
41629;SDS011;27322;49.488;8.480;2022-09-27T14:04:48;1.50;;;0.60;;
41629;SDS011;27322;49.488;8.480;2022-09-27T14:06:59;2.22;;;0.60;;
41629;SDS011;27322;49.488;8.480;2022-09-27T14:09:27;1.65;;;0.63;;
41629;SDS011;27322;49.488;8.480;2022-09-27T14:11:59;2.13;;;0.70;;
41629;SDS011;27322;49.488;8.480;2022-09-27T14:14:31;2.38;;;0.80;;
41629;SDS011;27322;49.488;8.480;2022-09-27T14:16:58;2.13;;;0.90;;
41629;SDS011;27322;49.488;8.480;2022-09-27T14:19:24;2.75;;;0.98;;
41629;SDS011;27322;49.488;8.480;2022-09-27T14:21:51;4.32;;;1.33;;
41629;SDS011;27322;49.488;8.480;2022-09-27T14:24:19;2.72;;;1.10;;
41629;SDS011;27322;49.488;8.480;2022-09-27T14:26:45;3.75;;;1.27;;
41629;SDS011;27322;49.488;8.480;2022-09-27T14:29:16;4.00;;;1.20;;
41629;SDS011;27322;49.488;8.480;2022-09-27T14:31:44;3.35;;;1.00;;
41629;SDS011;27322;49.488;8.480;2022-09-27T14:34:12;3.03;;;1.02;;
41629;SDS011;27322;49.488;8.480;2022-09-27T14:36:37;3.03;;;1.10;;
41629;SDS011;27322;49.488;8.480;2022-09-27T14:39:29;3.85;;;1.20;;
41629;SDS011;27322;49.488;8.480;2022-09-27T14:42:00;3.55;;;1.20;;
41629;SDS011;27322;49.488;8.480;2022-09-27T14:44:42;5.28;;;1.30;;
41629;SDS011;27322;49.488;8.480;2022-09-27T14:47:14;2.83;;;1.10;;
41629;SDS011;27322;49.488;8.480;2022-09-27T14:49:59;2.95;;;1.15;;
41629;SDS011;27322;49.488;8.480;2022-09-27T14:52:30;5.43;;;1.30;;
41629;SDS011;27322;49.488;8.480;2022-09-27T14:55:11;2.50;;;1.10;;
41629;SDS011;27322;49.488;8.480;2022-09-27T14:57:44;2.72;;;1.13;;
41629;SDS011;27322;49.488;8.480;2022-09-27T15:00:19;3.63;;;1.13;;
41629;SDS011;27322;49.488;8.480;2022-09-27T15:02:50;4.38;;;1.30;;
41629;SDS011;27322;49.488;8.480;2022-09-27T15:05:20;4.55;;;1.20;;
41629;SDS011;27322;49.488;8.480;2022-09-27T15:07:48;2.70;;;1.30;;
41629;SDS011;27322;49.488;8.480;2022-09-27T15:10:21;2.22;;;1.20;;
41629;SDS011;27322;49.488;8.480;2022-09-27T15:12:48;3.67;;;1.40;;
41629;SDS011;27322;49.488;8.480;2022-09-27T15:15:18;2.72;;;1.30;;
41629;SDS011;27322;49.488;8.480;2022-09-27T15:17:47;3.95;;;1.30;;
41629;SDS011;27322;49.488;8.480;2022-09-27T15:22:45;3.25;;;1.10;;
41629;SDS011;27322;49.488;8.480;2022-09-27T15:27:51;2.90;;;1.38;;
41629;SDS011;27322;49.488;8.480;2022-09-27T15:30:20;3.03;;;1.27;;
41629;SDS011;27322;49.488;8.480;2022-09-27T15:32:51;2.85;;;1.20;;
41629;SDS011;27322;49.488;8.480;2022-09-27T15:35:21;2.38;;;1.30;;
41629;SDS011;27322;49.488;8.480;2022-09-27T15:37:50;3.20;;;1.50;;
41629;SDS011;27322;49.488;8.480;2022-09-27T15:42:55;3.70;;;1.40;;
41629;SDS011;27322;49.488;8.480;2022-09-27T15:45:29;3.35;;;1.00;;
41629;SDS011;27322;49.488;8.480;2022-09-27T15:48:15;3.78;;;1.13;;
41629;SDS011;27322;49.488;8.480;2022-09-27T15:50:42;2.70;;;1.30;;
41629;SDS011;27322;49.488;8.480;2022-09-27T15:53:08;2.95;;;1.30;;
41629;SDS011;27322;49.488;8.480;2022-09-27T15:55:43;3.13;;;1.50;;
41629;SDS011;27322;49.488;8.480;2022-09-27T15:58:13;6.15;;;1.58;;
41629;SDS011;27322;49.488;8.480;2022-09-27T16:00:55;4.88;;;1.80;;
41629;SDS011;27322;49.488;8.480;2022-09-27T16:03:29;3.63;;;1.67;;
41629;SDS011;27322;49.488;8.480;2022-09-27T16:05:56;3.60;;;1.60;;
41629;SDS011;27322;49.488;8.480;2022-09-27T16:08:23;3.60;;;1.40;;
41629;SDS011;27322;49.488;8.480;2022-09-27T16:10:51;3.20;;;1.30;;
41629;SDS011;27322;49.488;8.480;2022-09-27T16:13:19;2.70;;;1.23;;
41629;SDS011;27322;49.488;8.480;2022-09-27T16:15:45;4.80;;;1.50;;
41629;SDS011;27322;49.488;8.480;2022-09-27T16:18:12;2.83;;;1.10;;
41629;SDS011;27322;49.488;8.480;2022-09-27T16:20:38;3.88;;;1.50;;
41629;SDS011;27322;49.488;8.480;2022-09-27T16:23:04;3.35;;;1.10;;
41629;SDS011;27322;49.488;8.480;2022-09-27T16:25:30;3.28;;;1.40;;
41629;SDS011;27322;49.488;8.480;2022-09-27T16:27:56;2.97;;;1.30;;
41629;SDS011;27322;49.488;8.480;2022-09-27T16:30:26;3.17;;;1.17;;
41629;SDS011;27322;49.488;8.480;2022-09-27T16:32:52;3.03;;;1.20;;
41629;SDS011;27322;49.488;8.480;2022-09-27T16:35:19;3.85;;;1.20;;
41629;SDS011;27322;49.488;8.480;2022-09-27T16:37:45;2.00;;;1.00;;
41629;SDS011;27322;49.488;8.480;2022-09-27T16:40:11;2.40;;;0.90;;
41629;SDS011;27322;49.488;8.480;2022-09-27T16:42:39;1.58;;;0.73;;
41629;SDS011;27322;49.488;8.480;2022-09-27T16:45:05;2.20;;;0.90;;
41629;SDS011;27322;49.488;8.480;2022-09-27T16:47:32;1.38;;;0.70;;
41629;SDS011;27322;49.488;8.480;2022-09-27T16:49:58;2.25;;;0.80;;
41629;SDS011;27322;49.488;8.480;2022-09-27T16:52:42;1.95;;;0.80;;
41629;SDS011;27322;49.488;8.480;2022-09-27T16:55:11;1.73;;;0.70;;
41629;SDS011;27322;49.488;8.480;2022-09-27T16:57:37;2.08;;;0.82;;
41629;SDS011;27322;49.488;8.480;2022-09-27T17:00:03;2.10;;;0.70;;
41629;SDS011;27322;49.488;8.480;2022-09-27T17:02:29;2.83;;;0.95;;
41629;SDS011;27322;49.488;8.480;2022-09-27T17:04:56;2.70;;;0.73;;
41629;SDS011;27322;49.488;8.480;2022-09-27T17:07:22;2.25;;;0.80;;
41629;SDS011;27322;49.488;8.480;2022-09-27T17:09:48;2.90;;;0.85;;
41629;SDS011;27322;49.488;8.480;2022-09-27T17:12:13;1.60;;;0.70;;
41629;SDS011;27322;49.488;8.480;2022-09-27T17:14:39;2.33;;;0.73;;
41629;SDS011;27322;49.488;8.480;2022-09-27T17:17:05;3.15;;;0.68;;
41629;SDS011;27322;49.488;8.480;2022-09-27T17:19:31;2.65;;;0.75;;
41629;SDS011;27322;49.488;8.480;2022-09-27T17:21:57;1.55;;;0.60;;
41629;SDS011;27322;49.488;8.480;2022-09-27T17:24:23;2.38;;;0.85;;
41629;SDS011;27322;49.488;8.480;2022-09-27T17:26:49;2.58;;;0.70;;
41629;SDS011;27322;49.488;8.480;2022-09-27T17:29:15;2.80;;;0.88;;
41629;SDS011;27322;49.488;8.480;2022-09-27T17:31:42;1.73;;;0.80;;
41629;SDS011;27322;49.488;8.480;2022-09-27T17:34:10;2.53;;;0.80;;
41629;SDS011;27322;49.488;8.480;2022-09-27T17:36:37;3.05;;;0.70;;
41629;SDS011;27322;49.488;8.480;2022-09-27T17:39:06;1.75;;;0.70;;
41629;SDS011;27322;49.488;8.480;2022-09-27T17:41:35;2.08;;;0.88;;
41629;SDS011;27322;49.488;8.480;2022-09-27T17:44:02;1.95;;;0.82;;
41629;SDS011;27322;49.488;8.480;2022-09-27T17:46:33;1.35;;;0.80;;
41629;SDS011;27322;49.488;8.480;2022-09-27T17:49:00;1.98;;;1.00;;
41629;SDS011;27322;49.488;8.480;2022-09-27T17:51:45;3.45;;;0.90;;
41629;SDS011;27322;49.488;8.480;2022-09-27T17:54:17;7.22;;;1.35;;
41629;SDS011;27322;49.488;8.480;2022-09-27T17:56:45;4.95;;;1.50;;
41629;SDS011;27322;49.488;8.480;2022-09-27T17:59:11;2.95;;;1.25;;
41629;SDS011;27322;49.488;8.480;2022-09-27T18:01:40;2.40;;;0.93;;
41629;SDS011;27322;49.488;8.480;2022-09-27T18:04:07;3.55;;;0.90;;
41629;SDS011;27322;49.488;8.480;2022-09-27T18:06:36;2.80;;;1.02;;
41629;SDS011;27322;49.488;8.480;2022-09-27T18:09:06;2.47;;;1.10;;
41629;SDS011;27322;49.488;8.480;2022-09-27T18:11:34;3.03;;;1.13;;
41629;SDS011;27322;49.488;8.480;2022-09-27T18:14:00;2.25;;;1.00;;
41629;SDS011;27322;49.488;8.480;2022-09-27T18:16:33;3.03;;;1.10;;
41629;SDS011;27322;49.488;8.480;2022-09-27T18:19:04;2.60;;;0.90;;
41629;SDS011;27322;49.488;8.480;2022-09-27T18:21:31;2.20;;;1.00;;